Time;durP1;ratioP1;P1;durP2;ratioP2;P2;SDS_P1;SDS_P2;PMS_P1;PMS_P2;Temp;Humidity;BMP_temperature;BMP_pressure;BME280_temperature;BME280_humidity;BME280_pressure;Samples;Min_cycle;Max_cycle;Signal;HPM_P1;HPM_P2
2023/09/04 00:01:20;;;;;;;17.48;8.40;;;;;;;-144.73;100.00;54473.38;5042692;28;20105;-75
2023/09/04 00:03:46;;;;;;;11.60;7.88;;;;;;;-144.73;100.00;54440.53;5021412;28;20041;-75
2023/09/04 00:06:12;;;;;;;15.82;8.63;;;;;;;-144.73;100.00;54411.81;5043276;28;20434;-75
2023/09/04 00:08:37;;;;;;;16.80;8.43;;;;;;;-144.73;100.00;54487.75;5024227;28;20085;-76
2023/09/04 00:11:03;;;;;;;13.15;8.35;;;;;;;-144.73;100.00;54444.66;5021604;28;20056;-75
2023/09/04 00:13:28;;;;;;;14.85;8.18;;;;;;;-144.73;100.00;54461.06;5017208;28;20037;-75
2023/09/04 00:15:56;;;;;;;13.10;8.55;;;;;;;-144.73;100.00;54436.44;5023528;28;20040;-75
2023/09/04 00:18:22;;;;;;;14.65;8.18;;;;;;;-144.73;100.00;54409.75;5019667;28;20064;-75
2023/09/04 00:20:48;;;;;;;13.10;8.20;;;;;;;-144.73;100.00;54444.66;5015045;28;20025;-76
2023/09/04 00:23:14;;;;;;;17.52;9.07;;;;;;;-144.73;100.00;54432.31;5019192;28;20519;-76
2023/09/04 00:25:39;;;;;;;12.38;7.82;;;;;;;-144.73;100.00;54463.13;5023186;28;20047;-76
2023/09/04 00:28:05;;;;;;;14.88;8.68;;;;;;;-144.73;100.00;54465.16;5036206;28;20041;-76
2023/09/04 00:30:30;;;;;;;17.20;8.75;;;;;;;-144.73;100.00;54456.97;5028070;28;20025;-76
2023/09/04 00:32:56;;;;;;;14.05;7.07;;;;;;;-144.73;100.00;54467.22;5038513;28;20040;-76
2023/09/04 00:35:21;;;;;;;13.93;8.07;;;;;;;-144.73;100.00;54461.06;5023257;28;20024;-76
2023/09/04 00:37:47;;;;;;;10.93;7.35;;;;;;;-144.73;100.00;54411.81;5019481;28;20125;-75
2023/09/04 00:40:13;;;;;;;18.60;8.90;;;;;;;-144.73;100.00;54444.66;5044681;28;20052;-76
2023/09/04 00:42:38;;;;;;;13.40;8.70;;;;;;;-144.73;100.00;54440.53;5020140;28;20246;-75
2023/09/04 00:45:05;;;;;;;16.27;7.47;;;;;;;-144.73;100.00;54415.91;5021070;28;20045;-75
2023/09/04 00:47:31;;;;;;;19.23;8.35;;;;;;;-144.73;100.00;54415.91;5023324;28;20021;-75
2023/09/04 00:49:57;;;;;;;13.05;7.20;;;;;;;-144.73;100.00;54473.38;5022655;28;20046;-76
2023/09/04 00:52:25;;;;;;;12.80;7.18;;;;;;;-144.73;100.00;54477.47;5014385;28;20013;-75
2023/09/04 00:54:51;;;;;;;16.23;8.63;;;;;;;-144.73;100.00;54448.75;5023283;28;20096;-75
2023/09/04 00:57:16;;;;;;;11.68;7.25;;;;;;;-144.73;100.00;54413.84;5017679;28;20500;-76
2023/09/04 00:59:42;;;;;;;11.38;6.55;;;;;;;-144.73;100.00;54461.06;5027021;28;20393;-75
2023/09/04 01:02:09;;;;;;;15.55;8.32;;;;;;;-144.73;100.00;54440.53;5041857;28;20392;-76
2023/09/04 01:04:34;;;;;;;14.13;7.78;;;;;;;-144.73;100.00;54424.13;5022120;28;20018;-75
2023/09/04 01:07:00;;;;;;;15.07;6.93;;;;;;;-144.73;100.00;54485.69;5042927;28;20031;-75
2023/09/04 01:09:26;;;;;;;11.52;7.80;;;;;;;-144.73;100.00;54465.16;5022134;28;20029;-75
2023/09/04 01:12:01;;;;;;;21.08;7.90;;;;;;;-144.73;100.00;54428.22;5014194;28;20044;-76
2023/09/04 01:14:29;;;;;;;13.05;7.35;;;;;;;-144.73;100.00;54456.97;5022082;28;20055;-76
2023/09/04 01:16:55;;;;;;;13.50;8.20;;;;;;;-144.73;100.00;54477.47;5018443;28;20026;-76
2023/09/04 01:19:21;;;;;;;16.00;8.27;;;;;;;-144.73;100.00;54475.44;5030029;28;20109;-76
2023/09/04 01:21:47;;;;;;;12.48;7.40;;;;;;;-144.73;100.00;54432.31;5025205;28;20089;-75
2023/09/04 01:24:12;;;;;;;17.70;7.15;;;;;;;-144.73;100.00;54469.28;5021485;28;20025;-75
2023/09/04 01:26:45;;;;;;;19.30;6.82;;;;;;;-144.73;100.00;54436.44;5019224;28;20052;-75
2023/09/04 01:29:25;;;;;;;14.90;7.05;;;;;;;-144.73;100.00;54440.53;5036001;28;20037;-75
2023/09/04 01:31:56;;;;;;;12.60;7.38;;;;;;;-144.73;100.00;54452.84;5028188;28;20033;-75
2023/09/04 01:34:29;;;;;;;10.85;7.05;;;;;;;-144.73;100.00;54448.75;5032242;28;20060;-76
2023/09/04 01:36:57;;;;;;;12.98;8.10;;;;;;;-144.73;100.00;54477.47;5015067;28;20025;-75
2023/09/04 01:39:25;;;;;;;16.65;7.70;;;;;;;-144.73;100.00;54456.97;5024159;28;20032;-75
2023/09/04 01:41:51;;;;;;;18.02;7.53;;;;;;;-144.73;100.00;54469.28;5019793;28;20107;-75
2023/09/04 01:44:16;;;;;;;14.43;7.75;;;;;;;-144.73;100.00;54452.84;5017475;28;20517;-75
2023/09/04 01:46:42;;;;;;;17.63;8.93;;;;;;;-144.73;100.00;54467.22;5025054;28;20041;-75
2023/09/04 01:49:07;;;;;;;15.60;7.45;;;;;;;-144.73;100.00;54407.69;5024225;28;20095;-76
2023/09/04 01:51:33;;;;;;;13.18;8.18;;;;;;;-144.73;100.00;54498.00;5027231;28;20061;-76
2023/09/04 01:53:58;;;;;;;12.82;8.02;;;;;;;-144.73;100.00;54436.44;5025547;28;20108;-76
2023/09/04 01:56:24;;;;;;;18.80;8.13;;;;;;;-144.73;100.00;54477.47;5026639;28;20029;-76
2023/09/04 01:58:49;;;;;;;17.63;8.70;;;;;;;-144.73;100.00;54448.75;5027505;28;20040;-75
2023/09/04 02:01:15;;;;;;;20.85;7.68;;;;;;;-144.73;100.00;54469.28;5019616;28;20125;-75
2023/09/04 02:03:44;;;;;;;17.95;9.15;;;;;;;-144.73;100.00;54463.13;5018322;28;20056;-76
2023/09/04 02:06:10;;;;;;;20.02;10.38;;;;;;;-144.73;100.00;54444.66;5019678;28;20021;-76
2023/09/04 02:08:36;;;;;;;15.48;9.05;;;;;;;-144.73;100.00;54465.16;5020234;28;20099;-76
2023/09/04 02:11:01;;;;;;;19.00;10.40;;;;;;;-144.73;100.00;54415.91;5018043;28;20052;-75
2023/09/04 02:13:27;;;;;;;20.20;10.48;;;;;;;-144.73;100.00;54442.59;5028940;28;20097;-75
2023/09/04 02:15:52;;;;;;;18.33;9.55;;;;;;;-144.73;100.00;54456.97;5029654;28;20025;-75
2023/09/04 02:18:17;;;;;;;17.83;8.02;;;;;;;-144.73;100.00;54487.75;5037368;28;20043;-76
2023/09/04 02:20:43;;;;;;;14.20;9.43;;;;;;;-144.73;100.00;54415.91;5025183;28;20048;-75
2023/09/04 02:23:08;;;;;;;16.15;9.52;;;;;;;-144.73;100.00;54459.00;5029874;28;20040;-75
2023/09/04 02:25:35;;;;;;;12.80;8.43;;;;;;;-144.73;100.00;54440.53;5025866;28;20020;-76
2023/09/04 02:28:00;;;;;;;15.27;9.05;;;;;;;-144.73;100.00;54454.91;5036727;28;20033;-75
2023/09/04 02:30:26;;;;;;;18.83;10.02;;;;;;;-144.73;100.00;54465.16;5041806;28;20087;-75
2023/09/04 02:32:51;;;;;;;13.57;9.48;;;;;;;-144.73;100.00;54444.66;5030661;28;20029;-75
2023/09/04 02:35:16;;;;;;;14.20;9.25;;;;;;;-144.73;100.00;54428.22;5024473;28;20033;-76
2023/09/04 02:37:44;;;;;;;18.20;9.20;;;;;;;-144.73;100.00;54424.13;5049507;28;20033;-75
2023/09/04 02:40:10;;;;;;;20.13;9.30;;;;;;;-144.73;100.00;54438.50;5021052;28;20025;-76
2023/09/04 02:42:35;;;;;;;15.10;9.05;;;;;;;-144.73;100.00;54465.16;5014740;28;20024;-75
2023/09/04 02:45:01;;;;;;;19.17;12.15;;;;;;;-144.73;100.00;54448.75;5050627;28;20029;-75
2023/09/04 02:47:27;;;;;;;19.15;11.77;;;;;;;-144.73;100.00;54498.00;5032004;28;20040;-75
2023/09/04 02:49:52;;;;;;;21.38;10.90;;;;;;;-144.73;100.00;54448.75;5021565;28;20104;-75
2023/09/04 02:52:18;;;;;;;22.30;10.60;;;;;;;-144.73;100.00;54495.97;5036153;28;20562;-73
2023/09/04 02:54:43;;;;;;;25.05;13.45;;;;;;;-144.73;100.00;54467.22;5027063;28;20037;-74
2023/09/04 02:57:09;;;;;;;15.63;9.93;;;;;;;-144.73;100.00;54436.44;5028410;28;20060;-74
2023/09/04 02:59:35;;;;;;;11.55;8.80;;;;;;;-144.73;100.00;54456.97;5029736;28;20074;-74
2023/09/04 03:02:01;;;;;;;22.83;10.70;;;;;;;-144.73;100.00;54461.06;5026679;28;20029;-75
2023/09/04 03:04:27;;;;;;;17.70;10.38;;;;;;;-144.73;100.00;54436.44;5021090;28;20395;-75
2023/09/04 03:06:52;;;;;;;11.30;8.38;;;;;;;-144.73;100.00;54444.66;5016804;28;20022;-75
2023/09/04 03:09:18;;;;;;;20.10;9.40;;;;;;;-144.73;100.00;54477.47;5046451;28;20049;-74
2023/09/04 03:11:43;;;;;;;15.43;9.02;;;;;;;-144.73;100.00;54473.38;5051074;28;20037;-74
2023/09/04 03:14:08;;;;;;;12.60;8.88;;;;;;;-144.73;100.00;54469.28;5017000;28;20041;-74
2023/09/04 03:16:34;;;;;;;14.30;9.10;;;;;;;-144.73;100.00;54434.38;5019167;28;20109;-75
2023/09/04 03:19:00;;;;;;;13.48;8.32;;;;;;;-144.73;100.00;54448.75;5025836;28;20052;-74
2023/09/04 03:21:25;;;;;;;13.10;7.82;;;;;;;-144.73;100.00;54506.22;5025592;28;20025;-75
2023/09/04 03:23:51;;;;;;;15.48;7.93;;;;;;;-144.73;100.00;54448.75;5021265;28;20083;-75
2023/09/04 03:26:17;;;;;;;16.17;8.48;;;;;;;-144.73;100.00;54461.06;5044752;28;20017;-73
2023/09/04 03:28:43;;;;;;;12.30;6.97;;;;;;;-144.73;100.00;54446.69;5027044;28;20037;-72
2023/09/04 03:31:14;;;;;;;16.58;7.57;;;;;;;-144.73;100.00;54407.69;5034310;28;20109;-72
2023/09/04 03:33:39;;;;;;;18.23;9.35;;;;;;;-144.73;100.00;54448.75;5018913;28;20029;-72
2023/09/04 03:36:04;;;;;;;15.48;8.15;;;;;;;-144.73;100.00;54436.44;5028973;28;20108;-72
2023/09/04 03:38:30;;;;;;;11.90;8.57;;;;;;;-144.73;100.00;54444.66;5025622;28;20025;-72
2023/09/04 03:40:55;;;;;;;11.77;7.43;;;;;;;-144.73;100.00;54456.97;5027404;28;20028;-72
2023/09/04 03:43:20;;;;;;;13.27;7.68;;;;;;;-144.73;100.00;54467.22;5020548;28;20029;-72
2023/09/04 03:45:46;;;;;;;13.52;7.90;;;;;;;-144.73;100.00;54477.47;5042124;28;20028;-72
2023/09/04 03:48:11;;;;;;;12.27;8.05;;;;;;;-144.73;100.00;54481.59;5023783;28;20059;-72
2023/09/04 03:50:37;;;;;;;15.95;9.43;;;;;;;-144.73;100.00;54456.97;5015827;28;20025;-72
2023/09/04 03:53:03;;;;;;;14.43;9.13;;;;;;;-144.73;100.00;54485.69;5028188;28;20080;-72
2023/09/04 03:55:28;;;;;;;13.35;8.98;;;;;;;-144.73;100.00;54485.69;5021740;28;20500;-72
2023/09/04 03:57:53;;;;;;;14.55;10.63;;;;;;;-144.73;100.00;54465.16;5015837;28;20492;-72
2023/09/04 04:00:19;;;;;;;26.27;12.00;;;;;;;-144.73;100.00;54456.97;5042613;28;20029;-72
2023/09/04 04:02:46;;;;;;;21.02;12.07;;;;;;;-144.73;100.00;54407.69;5023384;28;20037;-72
2023/09/04 04:05:13;;;;;;;17.92;10.32;;;;;;;-144.73;100.00;54452.84;5033962;28;20025;-72
2023/09/04 04:07:39;;;;;;;15.07;10.40;;;;;;;-144.73;100.00;54448.75;5019358;28;20396;-72
2023/09/04 04:10:08;;;;;;;20.40;12.30;;;;;;;-144.73;100.00;54481.59;5043305;28;20017;-72
2023/09/04 04:12:33;;;;;;;18.48;11.63;;;;;;;-144.73;100.00;54485.69;5020081;28;20029;-72
2023/09/04 04:15:06;;;;;;;14.77;9.52;;;;;;;-144.73;100.00;54440.53;5019255;28;20025;-72
2023/09/04 04:17:32;;;;;;;18.33;9.70;;;;;;;-144.73;100.00;54469.28;5034557;28;20030;-72
2023/09/04 04:19:58;;;;;;;17.95;10.10;;;;;;;-144.73;100.00;54461.06;5016509;28;20026;-73
2023/09/04 04:22:23;;;;;;;14.50;7.95;;;;;;;-144.73;100.00;54456.97;5017957;28;20108;-73
2023/09/04 04:24:52;;;;;;;16.25;10.50;;;;;;;-144.73;100.00;54510.31;5024521;28;20080;-73
2023/09/04 04:27:18;;;;;;;15.55;9.00;;;;;;;-144.73;100.00;54491.84;5017588;28;20051;-72
2023/09/04 04:29:44;;;;;;;19.15;10.27;;;;;;;-144.73;100.00;54485.69;5041154;28;20029;-72
2023/09/04 04:32:09;;;;;;;20.23;10.85;;;;;;;-144.73;100.00;54463.13;5018211;28;20023;-72
2023/09/04 04:34:34;;;;;;;25.27;10.13;;;;;;;-144.73;100.00;54428.22;5040427;28;20037;-72
2023/09/04 04:37:00;;;;;;;17.05;8.88;;;;;;;-144.73;100.00;54465.16;5023865;28;20073;-72
2023/09/04 04:39:25;;;;;;;22.52;10.77;;;;;;;-144.73;100.00;54481.59;5032282;28;20578;-72
2023/09/04 04:41:51;;;;;;;17.60;11.05;;;;;;;-144.73;100.00;54481.59;5018775;28;20079;-72
2023/09/04 04:44:16;;;;;;;17.73;12.57;;;;;;;-144.73;100.00;54469.28;5016632;28;20022;-72
2023/09/04 04:47:02;;;;;;;21.95;11.40;;;;;;;-144.73;100.00;54448.75;5043753;28;20025;-72
2023/09/04 04:49:27;;;;;;;30.35;13.75;;;;;;;-144.73;100.00;54454.91;5014990;28;20029;-72
2023/09/04 04:51:54;;;;;;;19.95;11.77;;;;;;;-144.73;100.00;54461.06;5024073;28;20036;-72
2023/09/04 04:54:20;;;;;;;22.15;11.55;;;;;;;-144.73;100.00;54473.38;5022307;28;20064;-72
2023/09/04 04:56:49;;;;;;;17.48;10.82;;;;;;;-144.73;100.00;54493.91;5021827;28;20052;-73
2023/09/04 04:59:15;;;;;;;26.85;12.25;;;;;;;-144.73;100.00;54467.22;5026117;28;20111;-72
2023/09/04 05:01:41;;;;;;;20.02;10.13;;;;;;;-144.73;100.00;54461.06;5040050;28;20025;-72
2023/09/04 05:04:06;;;;;;;19.65;11.13;;;;;;;-144.73;100.00;54461.06;5015814;28;20022;-72
2023/09/04 05:06:32;;;;;;;19.40;11.52;;;;;;;-144.73;100.00;54465.16;5027550;28;20112;-72
2023/09/04 05:08:57;;;;;;;20.13;11.48;;;;;;;-144.73;100.00;54493.91;5022941;28;20017;-72
2023/09/04 05:11:22;;;;;;;18.85;11.20;;;;;;;-144.73;100.00;54477.47;5027620;28;20029;-73
2023/09/04 05:13:48;;;;;;;15.38;9.75;;;;;;;-144.73;100.00;54477.47;5024025;28;20022;-72
2023/09/04 05:16:13;;;;;;;18.05;10.15;;;;;;;-144.73;100.00;54498.00;5033967;28;20033;-72
2023/09/04 05:18:39;;;;;;;18.65;11.10;;;;;;;-144.73;100.00;54502.13;5041092;28;20385;-73
2023/09/04 05:21:06;;;;;;;12.55;8.80;;;;;;;-144.73;100.00;54448.75;5031727;28;20377;-73
2023/09/04 05:23:31;;;;;;;16.23;9.55;;;;;;;-144.73;100.00;54498.00;5022700;28;20091;-73
2023/09/04 05:25:57;;;;;;;24.40;10.65;;;;;;;-144.73;100.00;54473.38;5042906;28;20021;-73
2023/09/04 05:28:23;;;;;;;16.08;9.88;;;;;;;-144.73;100.00;54465.16;5023913;28;20056;-73
2023/09/04 05:30:48;;;;;;;21.98;10.82;;;;;;;-144.73;100.00;54481.59;5023929;28;20021;-73
2023/09/04 05:33:13;;;;;;;21.23;11.50;;;;;;;-144.73;100.00;54502.13;5040726;28;20441;-73
2023/09/04 05:35:39;;;;;;;16.58;10.65;;;;;;;-144.73;100.00;54475.44;5019418;28;20055;-73
2023/09/04 05:38:05;;;;;;;14.77;10.35;;;;;;;-144.73;100.00;54493.91;5018729;28;20033;-73
2023/09/04 05:40:30;;;;;;;22.25;11.80;;;;;;;-144.73;100.00;54461.06;5018756;28;20083;-73
2023/09/04 05:42:57;;;;;;;24.33;11.10;;;;;;;-144.73;100.00;54473.38;5015275;28;20029;-73
2023/09/04 05:45:23;;;;;;;17.42;10.23;;;;;;;-144.73;100.00;54477.47;5022938;28;20014;-74
2023/09/04 05:47:48;;;;;;;23.58;10.90;;;;;;;-144.73;100.00;54493.91;5021687;28;20029;-73
2023/09/04 05:50:14;;;;;;;20.75;11.40;;;;;;;-144.73;100.00;54456.97;5018792;28;20384;-73
2023/09/04 05:52:39;;;;;;;18.85;11.60;;;;;;;-144.73;100.00;54452.84;5027450;28;20024;-73
2023/09/04 05:55:05;;;;;;;22.88;12.23;;;;;;;-144.73;100.00;54469.28;5028651;28;20115;-73
2023/09/04 05:57:31;;;;;;;18.38;12.07;;;;;;;-144.73;100.00;54502.13;5018096;28;20017;-73
2023/09/04 05:59:56;;;;;;;20.05;12.77;;;;;;;-144.73;100.00;54432.31;5021812;28;20020;-73
2023/09/04 06:02:22;;;;;;;25.83;12.73;;;;;;;-144.73;100.00;54493.91;5025232;28;20033;-73
2023/09/04 06:04:47;;;;;;;19.58;10.77;;;;;;;-144.73;100.00;54469.28;5023172;28;20022;-73
2023/09/04 06:07:14;;;;;;;14.85;10.75;;;;;;;-144.73;100.00;54465.16;5019836;28;20345;-73
2023/09/04 06:09:40;;;;;;;25.15;13.02;;;;;;;-144.73;100.00;54481.59;5023206;28;20037;-73
2023/09/04 06:12:11;;;;;;;16.17;10.90;;;;;;;-144.73;100.00;54448.75;5016783;28;20040;-73
2023/09/04 06:14:37;;;;;;;24.98;10.93;;;;;;;-144.73;100.00;54473.38;5019755;28;20043;-73
2023/09/04 06:17:02;;;;;;;21.48;11.95;;;;;;;-144.73;100.00;54444.66;5024131;28;20093;-73
2023/09/04 06:19:28;;;;;;;31.52;15.35;;;;;;;-144.73;100.00;54461.06;5031670;28;20038;-73
2023/09/04 06:21:54;;;;;;;18.45;13.85;;;;;;;-144.73;100.00;54465.16;5022689;28;20025;-74
2023/09/04 06:24:20;;;;;;;31.95;12.30;;;;;;;-144.73;100.00;54514.44;5020706;28;20038;-74
2023/09/04 06:26:45;;;;;;;24.33;12.40;;;;;;;-144.73;100.00;54498.00;5021930;28;20025;-74
2023/09/04 06:29:11;;;;;;;20.33;12.30;;;;;;;-144.73;100.00;54469.28;5015104;28;20029;-75
2023/09/04 06:31:36;;;;;;;23.65;11.30;;;;;;;-144.73;100.00;54456.97;5016341;28;20096;-70
2023/09/04 06:34:03;;;;;;;27.52;11.82;;;;;;;-144.73;100.00;54485.69;5024901;28;20029;-69
2023/09/04 06:36:29;;;;;;;25.73;12.10;;;;;;;-144.73;100.00;54498.00;5023368;28;20104;-70
2023/09/04 06:38:55;;;;;;;27.00;10.60;;;;;;;-144.73;100.00;54456.97;5010892;28;20033;-70
2023/09/04 06:41:21;;;;;;;25.75;11.18;;;;;;;-144.73;100.00;54452.84;5012440;28;20020;-72
2023/09/04 06:43:47;;;;;;;19.45;10.68;;;;;;;-144.73;100.00;54508.28;5030498;28;20104;-70
2023/09/04 06:46:12;;;;;;;20.73;10.93;;;;;;;-144.73;100.00;54456.97;5016110;28;20028;-70
2023/09/04 06:48:38;;;;;;;21.67;10.18;;;;;;;-144.73;100.00;54475.44;5011937;28;20492;-70
2023/09/04 06:51:04;;;;;;;20.50;11.65;;;;;;;-144.73;100.00;54489.81;5027872;28;20021;-70
2023/09/04 06:53:29;;;;;;;23.88;10.38;;;;;;;-144.73;100.00;54498.00;5018594;28;20097;-70
2023/09/04 06:55:55;;;;;;;25.73;10.30;;;;;;;-144.73;100.00;54444.66;5012598;28;20029;-70
2023/09/04 06:58:20;;;;;;;19.73;10.00;;;;;;;-144.73;100.00;54518.53;5012149;28;20489;-70
2023/09/04 07:00:45;;;;;;;23.95;12.27;;;;;;;-144.73;100.00;54473.38;5011437;28;20112;-71
2023/09/04 07:03:11;;;;;;;17.98;10.98;;;;;;;-144.73;100.00;54498.00;5010200;28;20039;-71
2023/09/04 07:05:36;;;;;;;26.63;11.13;;;;;;;-144.73;100.00;54450.81;5013332;28;20074;-71
2023/09/04 07:08:04;;;;;;;21.67;11.82;;;;;;;-144.73;100.00;54510.31;5017420;28;20561;-71
2023/09/04 07:10:30;;;;;;;24.27;11.55;;;;;;;-144.73;100.00;54547.28;5026384;28;20060;-72
2023/09/04 07:12:56;;;;;;;20.75;11.75;;;;;;;-144.73;100.00;54465.16;5014522;28;20033;-71
2023/09/04 07:15:21;;;;;;;23.85;11.23;;;;;;;-144.73;100.00;54483.66;5021208;28;20025;-70
2023/09/04 07:17:47;;;;;;;26.63;11.48;;;;;;;-144.73;100.00;54446.69;5022980;28;20433;-72
2023/09/04 07:20:13;;;;;;;20.60;11.13;;;;;;;-144.73;100.00;54481.59;5016322;28;20563;-70
2023/09/04 07:22:38;;;;;;;23.08;11.25;;;;;;;-144.73;100.00;54456.97;5018771;28;20108;-70
2023/09/04 07:25:04;;;;;;;26.23;11.57;;;;;;;-144.73;100.00;54426.16;5015409;28;20018;-71
2023/09/04 07:27:30;;;;;;;29.25;11.63;;;;;;;-144.73;100.00;54493.91;5015435;28;20041;-72
2023/09/04 07:29:55;;;;;;;21.42;10.95;;;;;;;-144.73;100.00;54456.97;5019110;28;20459;-72
2023/09/04 07:32:21;;;;;;;21.95;9.90;;;;;;;-144.73;100.00;54469.28;5020975;28;20149;-72
2023/09/04 07:34:47;;;;;;;28.70;10.77;;;;;;;-144.73;100.00;54473.38;5035841;28;20062;-72
2023/09/04 07:37:12;;;;;;;25.60;11.02;;;;;;;-144.73;100.00;54436.44;5021624;28;20017;-72
2023/09/04 07:39:39;;;;;;;38.55;10.60;;;;;;;-144.73;100.00;54469.28;5016565;28;20041;-72
2023/09/04 07:42:05;;;;;;;24.52;10.95;;;;;;;-144.73;100.00;54465.16;5009270;28;20013;-70
2023/09/04 07:44:31;;;;;;;29.48;10.45;;;;;;;-144.73;100.00;54444.66;5014213;28;20141;-70
2023/09/04 07:46:57;;;;;;;25.48;10.05;;;;;;;-144.73;100.00;54407.69;5014850;28;20029;-70
2023/09/04 07:49:23;;;;;;;30.73;10.40;;;;;;;-144.73;100.00;54413.84;5018665;28;20104;-71
2023/09/04 07:51:48;;;;;;;34.20;10.18;;;;;;;-144.73;100.00;54448.75;5015929;28;20053;-70
2023/09/04 07:54:14;;;;;;;28.58;9.73;;;;;;;-144.73;100.00;54454.91;5013886;28;20033;-71
2023/09/04 07:56:39;;;;;;;22.83;10.75;;;;;;;-144.73;100.00;54411.81;5019160;28;20026;-71
2023/09/04 07:59:05;;;;;;;25.50;10.85;;;;;;;-144.73;100.00;54428.22;5014404;28;20032;-71
2023/09/04 08:01:32;;;;;;;20.98;9.73;;;;;;;-144.73;100.00;54422.06;5013939;28;20093;-70
2023/09/04 08:03:58;;;;;;;31.48;10.95;;;;;;;-144.73;100.00;54422.06;5013790;28;20038;-71
2023/09/04 08:06:23;;;;;;;39.25;10.18;;;;;;;-144.73;100.00;54432.31;5017379;28;20071;-72
2023/09/04 08:08:48;;;;;;;20.45;9.85;;;;;;;-144.73;100.00;54436.44;5012744;28;20397;-71
2023/09/04 08:11:14;;;;;;;26.60;10.15;;;;;;;-144.73;100.00;54452.84;5013569;28;20136;-71
2023/09/04 08:13:39;;;;;;;31.80;10.07;;;;;;;-144.73;100.00;54407.69;5013290;28;20030;-71
2023/09/04 08:16:05;;;;;;;15.32;7.75;;;;;;;-144.73;100.00;54411.81;5020296;28;20025;-71
2023/09/04 08:18:30;;;;;;;19.83;8.25;;;;;;;-144.73;100.00;54436.44;5022921;28;20041;-72
2023/09/04 08:20:55;;;;;;;19.63;8.50;;;;;;;-144.73;100.00;54366.66;5018811;28;20037;-72
2023/09/04 08:23:21;;;;;;;22.88;7.05;;;;;;;-144.73;100.00;54415.91;5019948;28;20045;-72
2023/09/04 08:25:46;;;;;;;16.90;8.05;;;;;;;-144.73;100.00;54448.75;5016510;28;20017;-72
2023/09/04 08:28:11;;;;;;;28.00;8.73;;;;;;;-144.73;100.00;54432.31;5024817;28;20116;-71
2023/09/04 08:30:37;;;;;;;17.77;8.35;;;;;;;-144.73;100.00;54407.69;5020368;28;20122;-71
2023/09/04 08:33:02;;;;;;;27.35;8.50;;;;;;;-144.73;100.00;54407.69;5015106;28;20044;-72
2023/09/04 08:35:29;;;;;;;28.48;8.70;;;;;;;-144.73;100.00;54440.53;5015700;28;20053;-72
2023/09/04 08:37:56;;;;;;;22.90;5.78;;;;;;;-144.73;100.00;54370.75;5013586;28;20049;-71
2023/09/04 08:40:22;;;;;;;17.77;6.05;;;;;;;-144.73;100.00;54413.84;5015183;28;20021;-72
2023/09/04 08:42:49;;;;;;;16.02;6.97;;;;;;;-144.73;100.00;54415.91;5012874;28;20091;-71
2023/09/04 08:45:17;;;;;;;17.98;6.50;;;;;;;-144.73;100.00;54407.69;5020609;28;20018;-72
2023/09/04 08:47:43;;;;;;;16.65;4.60;;;;;;;-144.73;100.00;54424.13;5015787;28;20034;-72
2023/09/04 08:50:10;;;;;;;22.17;6.05;;;;;;;-144.73;100.00;54391.28;5014876;28;20024;-71
2023/09/04 08:52:37;;;;;;;14.05;4.88;;;;;;;-144.73;100.00;54411.81;5020666;28;20024;-74
2023/09/04 08:55:07;;;;;;;11.45;5.93;;;;;;;-144.73;100.00;54411.81;5036065;28;20056;-71
2023/09/04 08:57:35;;;;;;;21.55;7.18;;;;;;;-144.73;100.00;54395.38;5015713;28;20100;-71
2023/09/04 09:00:02;;;;;;;9.18;4.22;;;;;;;-144.73;96.43;54411.81;5023136;28;20086;-71
2023/09/04 09:02:29;;;;;;;10.10;3.63;;;;;;;-144.73;92.51;54395.38;5024382;28;20027;-71
2023/09/04 09:04:56;;;;;;;9.48;4.13;;;;;;;-144.73;88.61;54395.38;5025202;28;20104;-71
2023/09/04 09:07:23;;;;;;;7.47;3.00;;;;;;;-144.73;87.96;54391.28;5024723;28;20024;-72
2023/09/04 09:09:51;;;;;;;12.10;3.80;;;;;;;-144.73;87.31;54420.00;5015705;28;20084;-71
2023/09/04 09:12:16;;;;;;;10.50;3.05;;;;;;;-144.73;85.15;54424.13;5035513;28;20029;-71
2023/09/04 09:14:42;;;;;;;7.85;3.90;;;;;;;-144.73;85.00;54411.81;5013422;28;20094;-72
2023/09/04 09:17:15;;;;;;;10.50;3.30;;;;;;;-144.73;85.37;54407.69;5018556;28;20030;-71
2023/09/04 09:19:43;;;;;;;9.07;4.18;;;;;;;-144.73;85.91;54383.06;5023868;28;20059;-72
2023/09/04 09:22:11;;;;;;;15.70;3.08;;;;;;;-144.73;83.88;54407.69;5012781;28;20029;-71
2023/09/04 09:25:01;;;;;;;10.38;3.33;;;;;;;-144.73;82.29;54350.22;5019395;28;20025;-71
2023/09/04 09:27:29;;;;;;;10.57;3.50;;;;;;;-144.73;80.34;54407.69;5015030;28;20010;-72
2023/09/04 09:29:57;;;;;;;10.73;2.95;;;;;;;-144.73;83.40;54364.59;5018674;28;20036;-71
2023/09/04 09:32:26;;;;;;;7.50;2.92;;;;;;;-144.73;74.01;54376.91;5017003;28;20024;-71
2023/09/04 09:34:53;;;;;;;7.47;2.78;;;;;;;-144.73;75.16;54407.69;5018112;28;20024;-71
2023/09/04 09:37:20;;;;;;;15.57;3.00;;;;;;;-144.73;77.14;54358.44;5031856;28;20051;-72
2023/09/04 09:39:46;;;;;;;7.90;3.03;;;;;;;-144.73;73.96;54374.84;5019735;28;20103;-71
2023/09/04 09:42:12;;;;;;;12.48;2.42;;;;;;;-144.73;72.00;54358.44;5015897;28;21279;-73
2023/09/04 09:44:37;;;;;;;11.25;2.53;;;;;;;-144.73;68.54;54389.22;5019422;28;20075;-73
2023/09/04 09:47:07;;;;;;;4.40;2.25;;;;;;;-144.73;66.10;54374.84;5019837;28;20025;-72
2023/09/04 09:49:34;;;;;;;10.10;3.08;;;;;;;-144.73;74.25;54378.97;5029149;28;20097;-73
2023/09/04 09:51:59;;;;;;;6.95;2.72;;;;;;;-144.73;72.06;54378.97;5021908;28;20030;-72
2023/09/04 09:54:43;;;;;;;9.38;2.70;;;;;;;-144.73;70.37;54374.84;5020108;28;20051;-73
2023/09/04 09:57:11;;;;;;;9.55;2.53;;;;;;;-144.73;72.34;54385.13;5012781;28;20606;-72
2023/09/04 09:59:38;;;;;;;4.85;1.70;;;;;;;-144.73;65.02;54383.06;5010595;28;20523;-72
2023/09/04 10:02:05;;;;;;;5.97;1.73;;;;;;;-144.73;64.71;54329.72;5012434;28;20025;-72
2023/09/04 10:04:35;;;;;;;5.03;1.90;;;;;;;-144.73;60.87;54385.13;5013816;28;20370;-72
2023/09/04 10:07:02;;;;;;;4.65;1.83;;;;;;;-144.73;59.54;54378.97;5014501;28;20045;-72
2023/09/04 10:09:30;;;;;;;5.50;1.58;;;;;;;-144.73;63.10;54374.84;5026035;28;20496;-72
2023/09/04 10:12:15;;;;;;;2.25;1.40;;;;;;;-144.73;63.05;54370.75;5014993;28;20017;-72
2023/09/04 10:14:42;;;;;;;5.10;1.77;;;;;;;-144.73;60.98;54300.97;5030220;28;20045;-72
2023/09/04 10:17:21;;;;;;;8.00;1.70;;;;;;;-144.73;57.17;54358.44;5025068;28;20074;-73
2023/09/04 10:19:48;;;;;;;6.00;1.50;;;;;;;-144.73;57.72;54387.19;5028227;28;20040;-72
2023/09/04 10:22:25;;;;;;;3.75;1.63;;;;;;;-144.73;60.59;54362.53;5019641;28;20033;-72
2023/09/04 10:25:00;;;;;;;4.10;1.50;;;;;;;-144.73;56.69;54350.22;5014858;28;20037;-72
2023/09/04 10:27:32;;;;;;;3.85;1.67;;;;;;;-144.73;53.96;54395.38;5035422;28;20060;-72
2023/09/04 10:30:05;;;;;;;3.60;1.52;;;;;;;-144.73;53.74;54362.53;5023190;28;20081;-71
2023/09/04 10:32:30;;;;;;;7.65;1.40;;;;;;;-144.73;52.70;54333.81;5033688;28;20025;-73
2023/09/04 10:34:56;;;;;;;4.18;1.48;;;;;;;-144.73;52.06;54305.06;5024804;28;20025;-73
2023/09/04 10:37:26;;;;;;;5.22;1.65;;;;;;;-144.73;53.01;54292.75;5022088;28;20045;-71
2023/09/04 10:39:52;;;;;;;11.20;1.60;;;;;;;-144.73;51.25;54317.38;5016652;28;20025;-73
2023/09/04 10:42:18;;;;;;;9.98;1.50;;;;;;;-144.73;54.59;54391.28;5018755;28;20021;-73
2023/09/04 10:44:49;;;;;;;3.42;1.50;;;;;;;-144.73;52.52;54329.72;5022551;28;20116;-73
2023/09/04 10:47:16;;;;;;;47.65;2.13;;;;;;;-144.73;51.66;54335.88;5022505;28;20108;-73
2023/09/04 10:49:42;;;;;;;2.85;1.40;;;;;;;-144.73;49.34;54342.03;5023194;28;20036;-73
2023/09/04 10:52:09;;;;;;;5.30;1.38;;;;;;;-144.73;49.81;54358.44;5037954;28;20025;-73
2023/09/04 10:54:35;;;;;;;2.83;1.50;;;;;;;-144.73;52.28;54337.91;5023139;28;20073;-72
2023/09/04 10:57:05;;;;;;;1.70;1.23;;;;;;;-144.73;53.89;54333.81;5019795;28;20079;-72
2023/09/04 10:59:53;;;;;;;5.40;1.77;;;;;;;-144.73;56.93;54344.06;5021366;28;20037;-72